Terminal Aerodrome Forecast
Issued by NWS

Home | Current Version | Previous Version | Text Only | Print | Product List | Glossary On
Versions: 1 2 3 4 5 6 7 8 9 10 11 12 13 14 15 16 17
222
FTUS43 KICT 191137
TAFSLN
TAF
KSLN 191137Z 1912/2012 VRB03KT P6SM SKC
     FM191600 23007KT P6SM SKC
     FM191900 22012KT P6SM SKC=

USA.gov is the U.S. government's official web portal to all federal, state and local government web resources and services.